Time;durP1;ratioP1;P1;durP2;ratioP2;P2;SDS_P1;SDS_P2;PMS_P1;PMS_P2;Temp;Humidity;BMP_temperature;BMP_pressure;BME280_temperature;BME280_humidity;BME280_pressure;Samples;Min_cycle;Max_cycle;Signal;HPM_P1;HPM_P2
2022/05/09 00:00:29;;;;;;;14.97;8.33;;;10.40;99.90;;;;;;5029822;28;20214;-60
2022/05/09 00:02:58;;;;;;;17.27;7.83;;;10.40;99.90;;;;;;5016935;28;20194;-60
2022/05/09 00:05:29;;;;;;;16.80;8.80;;;10.40;99.90;;;;;;5029318;28;20280;-60
2022/05/09 00:07:57;;;;;;;16.03;8.30;;;10.40;99.90;;;;;;5026850;28;20214;-60
2022/05/09 00:10:28;;;;;;;14.97;9.07;;;10.30;99.90;;;;;;5025874;28;22133;-60
2022/05/09 00:12:56;;;;;;;15.93;8.17;;;10.30;99.90;;;;;;5032741;28;20325;-60
2022/05/09 00:15:25;;;;;;;13.80;7.97;;;10.30;99.90;;;;;;5029942;28;20238;-60
2022/05/09 00:17:53;;;;;;;16.47;8.70;;;10.30;99.90;;;;;;5029432;28;20222;-60
2022/05/09 00:20:21;;;;;;;21.33;9.00;;;10.20;99.90;;;;;;5029558;28;20287;-60
2022/05/09 00:22:53;;;;;;;11.40;8.00;;;10.20;99.90;;;;;;5027778;28;20772;-60
2022/05/09 00:25:23;;;;;;;15.83;8.30;;;10.20;99.90;;;;;;5023299;28;20200;-60
2022/05/09 00:27:52;;;;;;;16.43;8.77;;;10.10;99.90;;;;;;5011250;28;20290;-60
2022/05/09 00:30:21;;;;;;;14.87;8.40;;;10.10;99.90;;;;;;5028895;28;20671;-60
2022/05/09 00:32:50;;;;;;;13.40;7.90;;;10.00;99.90;;;;;;5035948;28;20273;-60
2022/05/09 00:35:18;;;;;;;15.17;8.63;;;10.00;99.90;;;;;;5027572;28;20212;-60
2022/05/09 00:37:46;;;;;;;12.30;7.87;;;9.90;99.90;;;;;;5025670;28;20209;-60
2022/05/09 00:40:17;;;;;;;11.93;7.40;;;9.80;99.90;;;;;;5006181;28;20313;-60
2022/05/09 00:42:47;;;;;;;15.77;8.40;;;9.80;99.90;;;;;;5029372;28;20643;-60
2022/05/09 00:45:16;;;;;;;16.70;8.83;;;9.80;99.90;;;;;;5031057;28;21935;-60
2022/05/09 00:47:45;;;;;;;18.57;8.20;;;9.70;99.90;;;;;;5030161;28;20247;-60
2022/05/09 00:50:18;;;;;;;19.53;8.93;;;9.70;99.90;;;;;;5010519;28;20950;-60
2022/05/09 00:52:52;;;;;;;13.63;8.27;;;9.60;99.90;;;;;;5040664;28;20197;-60
2022/05/09 00:55:27;;;;;;;18.30;8.30;;;9.60;99.90;;;;;;5018318;28;20201;-60
2022/05/09 00:58:03;;;;;;;11.57;7.80;;;9.60;99.90;;;;;;5019877;28;20191;-60
2022/05/09 01:00:32;;;;;;;20.40;8.40;;;9.50;99.90;;;;;;5026235;28;20197;-60
2022/05/09 01:03:02;;;;;;;17.80;8.70;;;9.40;99.90;;;;;;5025932;28;20299;-60
2022/05/09 01:05:30;;;;;;;19.80;8.77;;;9.30;99.90;;;;;;5029016;28;20654;-60
2022/05/09 01:08:00;;;;;;;19.87;9.47;;;9.30;99.90;;;;;;5029518;28;20227;-60
2022/05/09 01:10:32;;;;;;;14.20;8.83;;;9.30;99.90;;;;;;5025438;28;20617;-60
2022/05/09 01:13:01;;;;;;;16.97;9.30;;;9.30;99.90;;;;;;5028287;28;20196;-60
2022/05/09 01:15:30;;;;;;;18.33;9.00;;;9.20;99.90;;;;;;5026947;28;20208;-60
2022/05/09 01:18:01;;;;;;;20.37;9.27;;;9.20;99.90;;;;;;5026404;28;20245;-60
2022/05/09 01:20:30;;;;;;;14.50;9.23;;;9.20;99.90;;;;;;5032960;28;20207;-60
2022/05/09 01:23:00;;;;;;;15.37;9.47;;;9.20;99.90;;;;;;5025833;28;20200;-60
2022/05/09 01:25:29;;;;;;;19.20;10.33;;;9.10;99.90;;;;;;5025699;28;20204;-60
2022/05/09 01:27:59;;;;;;;17.13;9.67;;;9.10;99.90;;;;;;4997913;28;20277;-60
2022/05/09 01:30:35;;;;;;;15.17;9.20;;;9.10;99.90;;;;;;5028517;28;20200;-60
2022/05/09 01:33:08;;;;;;;18.03;10.30;;;9.10;99.90;;;;;;5029032;28;20192;-60
2022/05/09 01:35:41;;;;;;;17.47;9.97;;;9.10;99.90;;;;;;5026700;28;20201;-60
2022/05/09 01:38:17;;;;;;;18.60;10.57;;;9.10;99.90;;;;;;5030793;28;20199;-60
2022/05/09 01:40:46;;;;;;;18.43;9.93;;;9.00;99.90;;;;;;5027961;28;20718;-60
2022/05/09 01:43:28;;;;;;;19.87;9.30;;;9.00;99.90;;;;;;5034203;28;20215;-60
2022/05/09 01:45:56;;;;;;;15.70;9.53;;;9.00;99.90;;;;;;5029004;28;20215;-60
2022/05/09 01:51:10;;;;;;;14.93;8.93;;;9.00;99.90;;;;;;5029896;28;20197;-60
2022/05/09 01:53:40;;;;;;;19.83;9.50;;;8.90;99.90;;;;;;5024626;28;20194;-60
2022/05/09 01:56:08;;;;;;;17.07;9.50;;;8.90;99.90;;;;;;5031954;28;20197;-60
2022/05/09 01:58:36;;;;;;;13.93;8.87;;;8.80;99.90;;;;;;5027803;28;20281;-60
2022/05/09 02:01:06;;;;;;;13.07;8.90;;;8.80;99.90;;;;;;5027168;28;20281;-60
2022/05/09 02:03:34;;;;;;;19.23;9.40;;;8.70;99.90;;;;;;5004420;28;20643;-60
2022/05/09 02:06:03;;;;;;;15.93;9.37;;;8.70;99.90;;;;;;5033805;28;20212;-60
2022/05/09 02:08:32;;;;;;;17.23;9.83;;;8.70;99.90;;;;;;5031102;28;20650;-60
2022/05/09 02:11:02;;;;;;;18.50;9.20;;;8.60;99.90;;;;;;5029407;28;20216;-60
2022/05/09 02:13:30;;;;;;;16.33;9.83;;;8.70;99.90;;;;;;5032042;28;20211;-60
2022/05/09 02:16:00;;;;;;;21.13;10.30;;;8.60;99.90;;;;;;5031529;28;20228;-60
2022/05/09 02:18:28;;;;;;;17.73;9.17;;;8.60;99.90;;;;;;5015082;28;20235;-60
2022/05/09 02:20:56;;;;;;;20.63;9.90;;;8.60;99.90;;;;;;5014522;28;20198;-60
2022/05/09 02:23:25;;;;;;;14.27;9.67;;;8.60;99.90;;;;;;5031241;28;20228;-60
2022/05/09 02:25:53;;;;;;;16.47;9.67;;;8.50;99.90;;;;;;5012489;28;20217;-60
2022/05/09 02:28:23;;;;;;;14.97;9.63;;;8.40;99.90;;;;;;5018117;28;20181;-60
2022/05/09 02:30:51;;;;;;;15.30;10.00;;;8.40;99.90;;;;;;5039274;28;20283;-60
2022/05/09 02:33:19;;;;;;;20.67;10.03;;;8.40;99.90;;;;;;5035402;28;20274;-61
2022/05/09 02:35:48;;;;;;;13.90;10.13;;;8.30;99.90;;;;;;5034461;28;20201;-60
2022/05/09 02:38:17;;;;;;;22.97;10.87;;;8.30;99.90;;;;;;5028025;28;20293;-60
2022/05/09 02:40:46;;;;;;;19.83;10.30;;;8.30;99.90;;;;;;5030995;28;20219;-60
2022/05/09 02:43:14;;;;;;;15.07;9.90;;;8.30;99.90;;;;;;5029678;28;20204;-60
2022/05/09 02:45:44;;;;;;;15.33;9.83;;;8.30;99.90;;;;;;5032744;28;20556;-60
2022/05/09 02:48:13;;;;;;;14.03;9.43;;;8.20;99.90;;;;;;5012454;28;20302;-60
2022/05/09 02:50:41;;;;;;;21.83;10.50;;;8.20;99.90;;;;;;5030327;28;20296;-60
2022/05/09 02:53:10;;;;;;;17.20;9.90;;;8.10;99.90;;;;;;5029023;28;20201;-60
2022/05/09 02:55:39;;;;;;;16.93;10.10;;;8.10;99.90;;;;;;5012823;28;20201;-60
2022/05/09 02:58:07;;;;;;;12.90;9.70;;;8.00;99.90;;;;;;5027735;28;20193;-60
2022/05/09 03:00:35;;;;;;;14.03;10.23;;;8.00;99.90;;;;;;5031587;28;20193;-60
2022/05/09 03:05:52;;;;;;;16.07;10.13;;;7.90;99.90;;;;;;5025545;28;20194;-60
2022/05/09 03:08:20;;;;;;;19.33;10.70;;;8.00;99.90;;;;;;5018724;28;20605;-60
2022/05/09 03:10:48;;;;;;;17.03;10.47;;;7.90;99.90;;;;;;5033702;28;20217;-60
2022/05/09 03:13:17;;;;;;;21.87;11.27;;;7.90;99.90;;;;;;5029918;28;20581;-60
2022/05/09 03:15:48;;;;;;;26.50;12.47;;;7.90;99.90;;;;;;5026277;28;20203;-60
2022/05/09 03:18:21;;;;;;;22.23;11.47;;;7.90;99.90;;;;;;5029473;28;20229;-60
2022/05/09 03:20:49;;;;;;;19.03;11.20;;;7.80;99.90;;;;;;5025775;28;20241;-60
2022/05/09 03:23:18;;;;;;;16.63;10.53;;;7.80;99.90;;;;;;5011393;28;20289;-60
2022/05/09 03:25:47;;;;;;;18.37;11.07;;;7.80;99.90;;;;;;5028518;28;20556;-60
2022/05/09 03:28:20;;;;;;;19.43;11.67;;;7.80;99.90;;;;;;5040123;28;20207;-60
2022/05/09 03:30:50;;;;;;;21.07;11.80;;;7.70;99.90;;;;;;5034129;28;20227;-60
2022/05/09 03:33:22;;;;;;;23.40;11.00;;;7.70;99.90;;;;;;5011490;28;20546;-60
2022/05/09 03:35:52;;;;;;;18.40;11.10;;;7.70;99.90;;;;;;5028704;28;20260;-60
2022/05/09 03:38:21;;;;;;;21.13;11.47;;;7.70;99.90;;;;;;5030157;28;20207;-60
2022/05/09 03:40:49;;;;;;;20.80;11.10;;;7.60;99.90;;;;;;5030772;28;20217;-60
2022/05/09 03:43:17;;;;;;;22.30;11.03;;;7.50;99.90;;;;;;5024706;28;20194;-60
2022/05/09 03:45:49;;;;;;;22.80;11.37;;;7.50;99.90;;;;;;5033643;28;20216;-60
2022/05/09 03:48:19;;;;;;;19.33;11.17;;;7.50;99.90;;;;;;5018335;28;20225;-60
2022/05/09 03:50:47;;;;;;;24.90;11.30;;;7.50;99.90;;;;;;5029811;28;20219;-60
2022/05/09 03:53:15;;;;;;;23.83;11.70;;;7.50;99.90;;;;;;5030512;28;20234;-60
2022/05/09 03:55:43;;;;;;;30.00;12.77;;;7.40;99.90;;;;;;5031026;28;20619;-60
2022/05/09 03:58:12;;;;;;;32.23;12.70;;;7.50;99.90;;;;;;5026375;28;20192;-60
2022/05/09 04:00:40;;;;;;;23.43;12.40;;;7.50;99.90;;;;;;5027480;28;20205;-60
2022/05/09 04:03:11;;;;;;;26.13;12.97;;;7.50;99.90;;;;;;5029863;28;20732;-60
2022/05/09 04:05:42;;;;;;;21.73;12.70;;;7.50;99.90;;;;;;5046261;28;20276;-61
2022/05/09 04:08:16;;;;;;;25.90;13.00;;;7.50;99.90;;;;;;5029524;28;20250;-60
2022/05/09 04:10:45;;;;;;;23.80;13.33;;;7.40;99.90;;;;;;5029187;28;20692;-60
2022/05/09 04:13:15;;;;;;;20.70;12.47;;;7.40;99.90;;;;;;5010264;28;20200;-60
2022/05/09 04:18:35;;;;;;;23.10;11.90;;;7.40;99.90;;;;;;5029480;28;20232;-60
2022/05/09 04:21:06;;;;;;;29.47;14.63;;;7.40;99.90;;;;;;5013884;28;20195;-60
2022/05/09 04:23:34;;;;;;;43.17;19.97;;;7.30;99.90;;;;;;5027291;28;20186;-60
2022/05/09 04:26:03;;;;;;;40.83;20.30;;;7.30;99.90;;;;;;5017462;28;20196;-60
2022/05/09 04:28:31;;;;;;;40.20;18.77;;;7.40;99.90;;;;;;5024115;28;20201;-60
2022/05/09 04:31:00;;;;;;;36.93;19.00;;;7.50;99.90;;;;;;5033140;28;20213;-60
2022/05/09 04:33:30;;;;;;;27.57;16.50;;;7.50;99.90;;;;;;5032192;28;20193;-60
2022/05/09 04:35:59;;;;;;;30.10;16.17;;;7.60;99.90;;;;;;5025275;28;20204;-60
2022/05/09 04:38:29;;;;;;;35.13;16.83;;;7.60;99.90;;;;;;5027128;28;20265;-60
2022/05/09 04:40:58;;;;;;;36.00;16.93;;;7.70;99.90;;;;;;5027488;28;20193;-59
2022/05/09 04:43:28;;;;;;;25.03;15.17;;;7.70;99.90;;;;;;5029217;28;20271;-60
2022/05/09 04:45:59;;;;;;;30.80;14.47;;;7.70;99.90;;;;;;5029746;28;20197;-60
2022/05/09 04:48:29;;;;;;;23.03;13.37;;;7.70;99.90;;;;;;5008653;28;20194;-60
2022/05/09 04:50:58;;;;;;;24.07;13.43;;;7.70;99.90;;;;;;5018090;28;20209;-60
2022/05/09 04:53:28;;;;;;;20.30;12.43;;;7.70;99.90;;;;;;5029602;28;20284;-60
2022/05/09 04:55:57;;;;;;;20.37;12.63;;;7.70;99.90;;;;;;5027553;28;20204;-60
2022/05/09 04:58:26;;;;;;;22.30;12.40;;;7.80;99.90;;;;;;5024680;28;20323;-60
2022/05/09 05:00:54;;;;;;;24.10;13.47;;;7.90;99.90;;;;;;5029387;28;20189;-60
2022/05/09 05:03:23;;;;;;;19.97;11.80;;;8.00;99.90;;;;;;5039116;28;20221;-60
2022/05/09 05:05:52;;;;;;;21.07;13.57;;;8.10;99.90;;;;;;5033834;28;20300;-60
2022/05/09 05:08:21;;;;;;;21.63;13.67;;;8.20;99.90;;;;;;5031159;28;20304;-60
2022/05/09 05:10:53;;;;;;;18.43;12.63;;;8.30;99.90;;;;;;5026123;28;20251;-60
2022/05/09 05:13:22;;;;;;;20.57;13.50;;;8.40;99.90;;;;;;5027306;28;20649;-60
2022/05/09 05:15:51;;;;;;;21.17;13.13;;;8.60;99.90;;;;;;5025671;28;20219;-60
2022/05/09 05:18:20;;;;;;;23.70;12.87;;;8.70;99.90;;;;;;5034202;28;20244;-60
2022/05/09 05:20:48;;;;;;;22.03;12.53;;;8.80;99.90;;;;;;5025241;28;20205;-60
2022/05/09 05:23:17;;;;;;;23.57;12.20;;;8.90;99.90;;;;;;5028369;28;20204;-60
2022/05/09 05:25:46;;;;;;;22.80;12.00;;;9.00;99.90;;;;;;5029400;28;20202;-60
2022/05/09 05:28:17;;;;;;;15.73;11.83;;;9.20;99.90;;;;;;5041028;28;20215;-60
2022/05/09 05:30:45;;;;;;;20.93;11.07;;;9.30;99.90;;;;;;5029563;28;20224;-60
2022/05/09 05:33:14;;;;;;;20.30;10.93;;;9.50;99.90;;;;;;5007836;28;20197;-60
2022/05/09 05:35:42;;;;;;;25.70;10.97;;;9.60;99.90;;;;;;5019777;28;20283;-61
2022/05/09 05:38:10;;;;;;;17.87;11.57;;;9.70;99.90;;;;;;5041667;28;20320;-60
2022/05/09 05:40:38;;;;;;;20.37;10.37;;;9.80;99.90;;;;;;5029463;28;20193;-60
2022/05/09 05:43:14;;;;;;;16.97;10.20;;;10.00;99.90;;;;;;5031272;28;20281;-60
2022/05/09 05:45:46;;;;;;;15.47;10.17;;;10.10;99.90;;;;;;5029027;28;20205;-60
2022/05/09 05:48:15;;;;;;;17.13;10.73;;;10.20;99.90;;;;;;5039120;28;20711;-61
2022/05/09 05:50:43;;;;;;;19.37;11.50;;;10.40;99.90;;;;;;5037019;28;20209;-60
2022/05/09 05:53:11;;;;;;;18.93;10.67;;;10.50;99.90;;;;;;5030418;28;20204;-60
2022/05/09 05:55:39;;;;;;;21.70;10.40;;;10.70;99.90;;;;;;5031401;28;20198;-60
2022/05/09 05:58:08;;;;;;;15.10;9.53;;;10.90;99.90;;;;;;5030494;28;20208;-61
2022/05/09 06:00:37;;;;;;;18.17;10.03;;;11.00;99.90;;;;;;5035879;28;20198;-61
2022/05/09 06:03:08;;;;;;;16.93;10.03;;;11.20;99.90;;;;;;5030575;28;20202;-61
2022/05/09 06:05:36;;;;;;;18.87;10.23;;;11.30;99.90;;;;;;5033419;28;20577;-60
2022/05/09 06:08:05;;;;;;;17.90;9.53;;;11.40;99.90;;;;;;5016147;28;20926;-60
2022/05/09 06:10:34;;;;;;;15.93;9.83;;;11.50;99.90;;;;;;5029925;28;20296;-61
2022/05/09 06:13:09;;;;;;;21.27;8.93;;;11.60;99.90;;;;;;5033481;28;20200;-61
2022/05/09 06:15:37;;;;;;;18.70;9.10;;;11.90;99.90;;;;;;5033421;28;20207;-61
2022/05/09 06:18:12;;;;;;;18.03;8.63;;;12.20;99.90;;;;;;5034961;28;20275;-60
2022/05/09 06:20:43;;;;;;;19.70;8.17;;;12.40;99.90;;;;;;5020332;28;20231;-61
2022/05/09 06:23:14;;;;;;;14.10;8.07;;;12.70;99.90;;;;;;5033991;28;20670;-61
2022/05/09 06:25:44;;;;;;;16.73;7.73;;;13.00;99.90;;;;;;5050848;28;20299;-60
2022/05/09 06:28:14;;;;;;;11.23;7.80;;;13.30;99.90;;;;;;5046026;28;20188;-61
2022/05/09 06:30:43;;;;;;;15.13;7.77;;;13.60;99.90;;;;;;5036985;28;20189;-61
2022/05/09 06:33:13;;;;;;;14.97;7.63;;;13.80;99.90;;;;;;5042831;28;20216;-61
2022/05/09 06:35:44;;;;;;;16.20;7.23;;;14.10;99.90;;;;;;5029469;28;20201;-61
2022/05/09 06:38:15;;;;;;;19.40;7.63;;;14.40;99.90;;;;;;5032722;28;20212;-61
2022/05/09 06:40:44;;;;;;;9.50;7.00;;;14.30;99.90;;;;;;5031473;28;20205;-61
2022/05/09 06:43:12;;;;;;;11.27;7.10;;;14.60;99.90;;;;;;5031571;28;20204;-61
2022/05/09 06:45:41;;;;;;;12.83;6.63;;;14.60;99.90;;;;;;5033542;28;20205;-61
2022/05/09 06:48:10;;;;;;;11.87;6.77;;;14.80;99.90;;;;;;5031768;28;20208;-61
2022/05/09 06:50:41;;;;;;;11.30;7.17;;;14.90;99.90;;;;;;5012567;28;20216;-61
2022/05/09 06:53:10;;;;;;;10.60;7.50;;;15.10;99.90;;;;;;5019494;28;20201;-61
2022/05/09 06:55:46;;;;;;;15.77;7.80;;;15.10;99.90;;;;;;5041297;28;20292;-61
2022/05/09 06:58:17;;;;;;;11.23;7.03;;;15.20;99.90;;;;;;5013265;28;20224;-61
2022/05/09 07:00:46;;;;;;;14.90;6.80;;;15.40;99.90;;;;;;5023503;28;20682;-61
2022/05/09 07:03:15;;;;;;;10.47;7.10;;;15.70;99.90;;;;;;5022448;28;20613;-61
2022/05/09 07:05:46;;;;;;;19.00;7.23;;;15.90;99.90;;;;;;5035226;28;20273;-61
2022/05/09 07:08:15;;;;;;;11.57;6.50;;;16.00;99.90;;;;;;5023519;28;20213;-61
2022/05/09 07:10:43;;;;;;;14.03;7.97;;;16.30;99.90;;;;;;5032450;28;20213;-61
2022/05/09 07:13:29;;;;;;;14.43;7.20;;;16.30;99.90;;;;;;5032049;28;20201;-61
2022/05/09 07:15:57;;;;;;;15.02;8.38;;;16.00;99.90;;;;;;5022462;28;20413;-61
2022/05/09 07:18:27;;;;;;;17.47;7.73;;;16.00;99.90;;;;;;5012703;28;20325;-62
2022/05/09 07:20:58;;;;;;;18.37;7.43;;;16.10;99.90;;;;;;5017000;28;20250;-61
2022/05/09 07:23:26;;;;;;;16.23;7.17;;;16.30;99.90;;;;;;5035854;28;20540;-61
2022/05/09 07:25:56;;;;;;;16.17;7.50;;;16.60;99.90;;;;;;5041362;28;20197;-62
2022/05/09 07:28:27;;;;;;;20.20;7.37;;;16.70;99.90;;;;;;5030215;28;20584;-62
2022/05/09 07:30:57;;;;;;;10.33;6.70;;;17.00;99.90;;;;;;5034137;28;20276;-62
2022/05/09 07:33:25;;;;;;;10.57;6.10;;;17.10;99.90;;;;;;5027156;28;20307;-61
2022/05/09 07:35:54;;;;;;;15.20;7.50;;;17.10;99.90;;;;;;5046008;28;20258;-62
2022/05/09 07:38:24;;;;;;;11.97;7.03;;;17.20;99.90;;;;;;5025261;28;20201;-62
2022/05/09 07:40:52;;;;;;;13.67;6.50;;;17.40;99.90;;;;;;5034733;28;20192;-61
2022/05/09 07:43:24;;;;;;;12.07;6.40;;;17.50;99.90;;;;;;5041643;28;20288;-62
2022/05/09 07:45:54;;;;;;;14.97;7.00;;;18.00;99.90;;;;;;5029168;28;20198;-62
2022/05/09 07:48:26;;;;;;;14.13;6.17;;;18.30;99.90;;;;;;5038572;28;20203;-62
2022/05/09 07:50:56;;;;;;;13.13;6.50;;;18.60;99.90;;;;;;5033092;28;20238;-62
2022/05/09 07:53:28;;;;;;;15.03;6.50;;;19.00;99.90;;;;;;5022533;28;20210;-62
2022/05/09 07:55:57;;;;;;;11.10;6.07;;;19.30;99.90;;;;;;5031700;28;20204;-62
2022/05/09 07:58:25;;;;;;;14.60;6.13;;;19.50;99.90;;;;;;5031835;28;20208;-62
2022/05/09 08:00:58;;;;;;;8.17;5.33;;;19.60;99.90;;;;;;5025047;28;20201;-62
2022/05/09 08:03:30;;;;;;;18.23;6.47;;;19.60;99.90;;;;;;5027449;28;20219;-62
2022/05/09 08:05:59;;;;;;;8.87;6.20;;;19.70;99.90;;;;;;5026522;28;20302;-62
2022/05/09 08:08:31;;;;;;;9.27;5.80;;;19.50;99.90;;;;;;5032813;28;20722;-62
2022/05/09 08:11:00;;;;;;;10.43;5.73;;;19.50;99.90;;;;;;5033904;28;20259;-62
2022/05/09 08:13:32;;;;;;;12.23;5.93;;;19.80;99.90;;;;;;5034352;28;20214;-63
2022/05/09 08:16:02;;;;;;;11.17;5.37;;;20.20;99.90;;;;;;5031685;28;20554;-62
2022/05/09 08:18:32;;;;;;;8.57;4.67;;;20.40;99.90;;;;;;5028930;28;20233;-63
2022/05/09 08:21:01;;;;;;;10.33;5.50;;;20.70;99.90;;;;;;5031457;28;20659;-63
2022/05/09 08:23:32;;;;;;;14.37;5.70;;;20.90;99.90;;;;;;5034828;28;20654;-62
2022/05/09 08:26:03;;;;;;;8.20;5.20;;;21.30;99.90;;;;;;5029701;28;20273;-62
2022/05/09 08:28:32;;;;;;;8.50;4.47;;;21.70;99.90;;;;;;5037844;28;20201;-62
2022/05/09 08:31:00;;;;;;;10.68;4.90;;;22.00;99.90;;;;;;5038435;28;20193;-62
2022/05/09 08:33:29;;;;;;;8.70;4.60;;;22.30;99.90;;;;;;5026641;28;20228;-63
2022/05/09 08:35:58;;;;;;;8.02;4.13;;;22.50;99.90;;;;;;5032516;28;20240;-62
2022/05/09 08:38:26;;;;;;;7.72;4.05;;;22.50;99.90;;;;;;5049344;28;20287;-63
2022/05/09 08:41:09;;;;;;;8.30;4.45;;;22.60;99.90;;;;;;5029880;28;20269;-63
2022/05/09 08:44:10;;;;;;;6.30;4.32;;;22.50;99.90;;;;;;5033054;28;20275;-63
2022/05/09 08:46:47;;;;;;;10.10;4.20;;;22.80;99.90;;;;;;5026243;28;20206;-63
2022/05/09 08:49:32;;;;;;;9.00;4.40;;;23.40;99.90;;;;;;5029532;28;20257;-63
2022/05/09 08:52:08;;;;;;;7.07;3.90;;;23.70;99.90;;;;;;5026880;28;20282;-63
2022/05/09 08:54:37;;;;;;;10.63;3.35;;;24.00;99.90;;;;;;5028104;28;20715;-63
2022/05/09 08:57:11;;;;;;;5.07;2.60;;;24.40;99.90;;;;;;5020536;28;20203;-63
2022/05/09 08:59:47;;;;;;;7.38;2.85;;;24.80;99.90;;;;;;5033374;28;20308;-63
2022/05/09 09:02:21;;;;;;;9.20;3.47;;;25.20;99.90;;;;;;5020651;28;20197;-63
2022/05/09 09:04:54;;;;;;;6.88;2.35;;;25.50;99.90;;;;;;5022974;28;20198;-63
2022/05/09 09:07:50;;;;;;;6.47;2.67;;;25.80;99.90;;;;;;5026790;28;20240;-63
2022/05/09 09:10:25;;;;;;;7.32;2.75;;;25.70;99.90;;;;;;5028311;28;20347;-63
2022/05/09 09:13:06;;;;;;;3.63;2.15;;;26.00;99.80;;;;;;5025234;28;20213;-63
2022/05/09 09:15:47;;;;;;;4.22;2.05;;;26.20;99.70;;;;;;5044394;28;20786;-63
2022/05/09 09:18:28;;;;;;;2.95;1.98;;;26.20;96.70;;;;;;5012253;28;20586;-63
2022/05/09 09:21:01;;;;;;;2.55;2.30;;;26.70;97.70;;;;;;5030314;28;20210;-63
2022/05/09 09:23:47;;;;;;;3.97;2.15;;;26.50;95.10;;;;;;5028534;28;20197;-63
2022/05/09 09:26:26;;;;;;;5.40;2.13;;;26.60;96.30;;;;;;5029638;28;20535;-63
2022/05/09 09:28:59;;;;;;;4.82;2.45;;;26.70;95.30;;;;;;5008852;28;20669;-62
2022/05/09 09:31:30;;;;;;;5.80;2.67;;;27.20;94.30;;;;;;5033765;28;20291;-63
2022/05/09 09:34:05;;;;;;;4.32;2.75;;;27.20;93.40;;;;;;5025915;28;20216;-63
2022/05/09 09:36:39;;;;;;;8.50;3.65;;;27.00;93.40;;;;;;5028723;28;20274;-62
2022/05/09 09:39:13;;;;;;;8.82;4.00;;;26.90;92.90;;;;;;5031821;28;20256;-63
2022/05/09 09:41:42;;;;;;;5.13;2.33;;;27.10;94.40;;;;;;5037937;28;20263;-63
2022/05/09 09:44:15;;;;;;;6.40;2.10;;;27.40;92.10;;;;;;5027647;28;20263;-63
2022/05/09 09:47:09;;;;;;;3.00;2.00;;;27.60;93.40;;;;;;5023502;28;20201;-63
2022/05/09 09:49:39;;;;;;;3.60;1.80;;;27.80;93.40;;;;;;5033896;28;20820;-63
2022/05/09 09:52:22;;;;;;;3.63;2.08;;;28.10;94.20;;;;;;5029829;28;20192;-63
2022/05/09 09:54:56;;;;;;;7.97;1.90;;;28.50;90.80;;;;;;5026178;28;20203;-63
2022/05/09 09:57:29;;;;;;;6.45;2.38;;;28.20;92.80;;;;;;5025459;28;20222;-63
2022/05/09 10:00:17;;;;;;;4.20;1.88;;;28.20;90.50;;;;;;5015438;28;20277;-63
2022/05/09 10:03:20;;;;;;;5.30;2.13;;;28.20;91.70;;;;;;5025413;28;20190;-63
2022/05/09 10:05:50;;;;;;;6.10;2.42;;;28.20;91.30;;;;;;5043320;28;20280;-63
2022/05/09 10:08:26;;;;;;;4.85;2.88;;;28.00;90.40;;;;;;5023704;28;20193;-63
2022/05/09 10:11:00;;;;;;;6.43;2.47;;;28.00;91.10;;;;;;5031339;28;20692;-63
2022/05/09 10:13:37;;;;;;;4.57;2.08;;;27.50;90.30;;;;;;5019248;28;20213;-63
2022/05/09 10:16:11;;;;;;;5.25;2.38;;;27.40;92.00;;;;;;5026620;28;20206;-63
2022/05/09 10:18:44;;;;;;;4.53;2.40;;;27.70;90.50;;;;;;5022762;28;20283;-63
2022/05/09 10:27:25;;;;;;;3.53;2.40;;;27.80;91.60;;;;;;5023929;28;20685;-63
2022/05/09 10:29:56;;;;;;;5.95;2.33;;;27.50;91.30;;;;;;5028917;28;20715;-63
2022/05/09 10:32:31;;;;;;;6.30;2.00;;;27.60;90.80;;;;;;5013252;28;20219;-63
2022/05/09 10:35:06;;;;;;;3.33;2.60;;;27.90;92.10;;;;;;5023200;28;20225;-63
2022/05/09 10:37:44;;;;;;;3.50;2.20;;;28.20;90.70;;;;;;5014260;28;20204;-63
2022/05/09 10:40:19;;;;;;;4.55;2.33;;;28.20;91.50;;;;;;5030967;28;20780;-63
2022/05/09 10:42:55;;;;;;;3.17;2.88;;;28.20;90.80;;;;;;5029835;28;20185;-63
2022/05/09 10:45:27;;;;;;;4.53;2.60;;;28.30;92.10;;;;;;5008219;28;20259;-63
2022/05/09 10:48:08;;;;;;;2.80;2.40;;;28.50;91.50;;;;;;5010372;28;20248;-63
2022/05/09 10:50:43;;;;;;;4.57;2.40;;;28.20;90.60;;;;;;5011449;28;20190;-63
2022/05/09 10:53:16;;;;;;;4.88;2.28;;;28.20;91.60;;;;;;5026130;28;20304;-63
2022/05/09 10:55:53;;;;;;;2.88;2.40;;;28.20;90.50;;;;;;5026525;28;20730;-63
2022/05/09 10:58:26;;;;;;;4.07;2.30;;;28.20;90.00;;;;;;5023731;28;20205;-62
2022/05/09 11:00:59;;;;;;;4.93;2.20;;;28.10;89.00;;;;;;5026331;28;20205;-63
2022/05/09 11:03:35;;;;;;;6.25;2.67;;;28.00;91.60;;;;;;5034422;28;20272;-62
2022/05/09 11:06:19;;;;;;;3.15;2.35;;;27.80;90.50;;;;;;5029156;28;20690;-62
2022/05/09 11:09:18;;;;;;;5.47;2.38;;;27.70;91.00;;;;;;5027793;28;20199;-62
2022/05/09 11:12:00;;;;;;;4.00;2.45;;;27.30;91.20;;;;;;5017078;28;20658;-63
2022/05/09 11:14:37;;;;;;;5.70;2.58;;;27.30;91.70;;;;;;5012064;28;20629;-62
2022/05/09 11:17:24;;;;;;;5.65;2.90;;;27.50;92.20;;;;;;5035645;28;20620;-63
2022/05/09 11:20:09;;;;;;;4.93;2.83;;;27.70;92.90;;;;;;5032887;28;20189;-63
2022/05/09 11:22:46;;;;;;;2.83;2.50;;;27.80;91.60;;;;;;5016978;28;20196;-63
2022/05/09 11:25:33;;;;;;;4.70;2.55;;;27.90;91.40;;;;;;5034873;28;20206;-62
2022/05/09 11:28:14;;;;;;;4.95;2.60;;;28.10;91.00;;;;;;5029516;28;20201;-63
2022/05/09 11:30:44;;;;;;;5.85;2.85;;;27.90;90.60;;;;;;5032929;28;20542;-63
2022/05/09 11:33:44;;;;;;;5.63;2.40;;;27.80;92.10;;;;;;5031964;28;20194;-63
2022/05/09 11:36:32;;;;;;;6.35;2.65;;;27.60;91.00;;;;;;5031415;28;20201;-62
2022/05/09 11:39:11;;;;;;;6.43;3.17;;;27.00;91.80;;;;;;5045082;28;20227;-62
2022/05/09 11:41:45;;;;;;;4.03;3.60;;;26.90;91.00;;;;;;5041869;28;20559;-62
2022/05/09 11:44:19;;;;;;;4.33;3.60;;;26.10;90.60;;;;;;5027231;28;20213;-62
2022/05/09 11:47:23;;;;;;;13.00;3.60;;;26.00;93.60;;;;;;5030458;28;20276;-62
2022/05/09 11:50:04;;;;;;;7.17;3.50;;;26.20;93.50;;;;;;5029887;28;20235;-62
2022/05/09 11:52:40;;;;;;;5.20;3.50;;;26.20;92.00;;;;;;5040789;28;20203;-62
2022/05/09 11:55:14;;;;;;;4.43;3.50;;;25.90;93.70;;;;;;5023034;28;20225;-62
2022/05/09 11:57:47;;;;;;;7.53;4.10;;;25.80;94.20;;;;;;5034870;28;20316;-62
2022/05/09 12:00:48;;;;;;;5.33;3.80;;;25.90;93.40;;;;;;5031459;28;20209;-62
2022/05/09 12:03:51;;;;;;;5.53;3.70;;;26.10;94.20;;;;;;5039034;28;20197;-62
2022/05/09 12:06:32;;;;;;;9.73;3.63;;;26.20;93.80;;;;;;5027393;28;20212;-62
2022/05/09 12:09:11;;;;;;;7.50;3.40;;;26.40;94.10;;;;;;5041118;28;20712;-62
2022/05/09 12:11:54;;;;;;;6.50;3.83;;;26.50;93.00;;;;;;5027573;28;20213;-61
2022/05/09 12:14:43;;;;;;;4.07;3.63;;;26.50;94.00;;;;;;5041485;28;20217;-61
2022/05/09 12:17:22;;;;;;;10.90;3.80;;;26.50;94.30;;;;;;5029653;28;20193;-61
2022/05/09 12:19:51;;;;;;;7.67;4.50;;;26.40;93.50;;;;;;5036781;28;20203;-61
2022/05/09 12:22:36;;;;;;;13.30;4.70;;;25.90;94.30;;;;;;5027571;28;20733;-62
2022/05/09 12:25:09;;;;;;;6.57;4.70;;;25.60;94.80;;;;;;5035368;28;20223;-62
2022/05/09 12:28:04;;;;;;;7.97;4.80;;;25.20;93.00;;;;;;5038264;28;20548;-62
2022/05/09 12:30:48;;;;;;;10.43;4.80;;;25.00;94.50;;;;;;5032338;28;20248;-62
2022/05/09 12:33:25;;;;;;;6.97;4.83;;;25.20;94.60;;;;;;5027600;28;20249;-62
2022/05/09 12:35:56;;;;;;;11.27;4.90;;;25.20;95.40;;;;;;5034627;28;20266;-62
2022/05/09 12:38:28;;;;;;;12.93;5.20;;;25.30;95.50;;;;;;5034276;28;20202;-61
2022/05/09 12:41:03;;;;;;;9.00;5.00;;;25.30;95.00;;;;;;5035899;28;20282;-62
2022/05/09 12:43:35;;;;;;;7.37;5.20;;;25.30;97.70;;;;;;5034866;28;20751;-61
2022/05/09 12:46:06;;;;;;;9.90;5.17;;;24.90;94.20;;;;;;5031395;28;20202;-62
2022/05/09 12:48:39;;;;;;;7.83;5.03;;;24.70;96.30;;;;;;5027291;28;21811;-61
2022/05/09 12:51:11;;;;;;;12.17;4.83;;;24.90;94.80;;;;;;5035186;28;20195;-61
2022/05/09 12:53:41;;;;;;;6.57;4.47;;;24.90;96.60;;;;;;5032962;28;20712;-61
2022/05/09 12:56:18;;;;;;;9.17;5.17;;;25.00;95.60;;;;;;5034889;28;20324;-61
2022/05/09 12:58:48;;;;;;;7.80;4.70;;;25.10;95.30;;;;;;5029633;28;20205;-62
2022/05/09 13:01:20;;;;;;;8.40;4.90;;;25.00;95.90;;;;;;5028474;28;20217;-61
2022/05/09 13:04:20;;;;;;;6.57;4.30;;;25.10;95.40;;;;;;5040677;28;20191;-61
2022/05/09 13:06:50;;;;;;;7.17;4.70;;;25.20;95.70;;;;;;5023158;28;20218;-62
2022/05/09 13:09:22;;;;;;;6.33;4.60;;;25.50;96.70;;;;;;5029584;28;20708;-62
2022/05/09 13:11:57;;;;;;;6.03;4.70;;;25.10;95.30;;;;;;5034162;28;20225;-62
2022/05/09 13:14:30;;;;;;;5.03;4.10;;;25.40;96.50;;;;;;5025095;28;20221;-62
2022/05/09 13:17:03;;;;;;;8.03;5.10;;;25.60;95.70;;;;;;5030589;28;20255;-61
2022/05/09 13:19:33;;;;;;;7.53;4.57;;;25.60;94.90;;;;;;5041003;28;20634;-61
2022/05/09 13:22:04;;;;;;;5.57;4.40;;;25.50;95.70;;;;;;5032047;28;20222;-61